Asian Infinity — 3EVP3 — position and weather

sailwx.info

Track history (hours):
 
Tides and Currents Weather Stations Pressure Air Temp Water Temp Dewpoint Dewpoint Depression Visibility Wind Speed Wind Dir Waves Ship Positions

Asian Infinity

Last reported at 2017-Mar-30 06:17 UTC. Time now 2017-Mar-30 22:39 UTC.
Position N 35°09' E 129°19'.

Length 104 m; draft 7.4 m.

Type: Cargo ship. MMSI: 351868000.

Date/timePositionNaut miles runAvg speedWind from/ knotsBaromVisibWave heightAir tempDewpointWater temp
2017-Mar-30 06:17N 35°09' E 129°19'810.1
2017-Mar-30 05:32N 35°03' E 129°13'1010.4
2017-Mar-30 04:33N 34°55' E 129°06'  
2017-Mar-27 23:34N 38°13' E 121°47'1110.2
2017-Mar-27 22:31N 38°18' E 121°35'  
2017-Mar-25 04:32N 38°32' E 121°38'9 8.8
2017-Mar-25 03:34N 38°40' E 121°42'1111.1
2017-Mar-25 02:34N 38°51' E 121°44'10 9.0
2017-Mar-25 01:30N 39°00' E 121°46'1 1.0
2017-Mar-25 00:29N 39°01' E 121°45'0 0.0
2017-Mar-24 23:29N 39°01' E 121°45'0 0.0
2017-Mar-24 22:29N 39°01' E 121°45'0 0.0
2017-Mar-24 21:29N 39°01' E 121°45'0 0.0
2017-Mar-24 20:32N 39°01' E 121°45'0 0.0
2017-Mar-24 19:29N 39°01' E 121°45'0 0.0
2017-Mar-24 18:29N 39°01' E 121°45'0 0.0
2017-Mar-24 17:29N 39°01' E 121°45'0 0.0
2017-Mar-24 16:29N 39°01' E 121°45'0 0.0
2017-Mar-24 15:05N 39°01' E 121°45'0 0.0
2017-Mar-24 14:11N 39°01' E 121°45'0 0.0
2017-Mar-24 13:29N 39°01' E 121°45'0 0.0
2017-Mar-24 11:17N 39°01' E 121°45'0 0.0
2017-Mar-24 07:29N 39°01' E 121°45'0 0.0
2017-Mar-24 06:29N 39°01' E 121°45'0 0.0
2017-Mar-24 05:29N 39°01' E 121°45'0 0.0
2017-Mar-24 04:29N 39°01' E 121°45'4 4.1
2017-Mar-24 03:33N 38°57' E 121°47'7 6.9
2017-Mar-24 02:33N 38°51' E 121°50'8 1.3
2017-Mar-23 20:20N 38°51' E 121°60'9 9.8
2017-Mar-23 19:25N 38°43' E 122°03'461 9.2
2017-Mar-21 17:33N 31°02' E 122°20'7 7.2
2017-Mar-21 16:34N 31°03' E 122°11'10 9.9
2017-Mar-21 15:34N 31°05' E 122°00'1212.2
2017-Mar-21 14:34N 31°13' E 121°49'1212.4
2017-Mar-21 13:33N 31°21' E 121°38'7 7.4
2017-Mar-21 12:33N 31°22' E 121°30'0 0.3
2017-Mar-21 11:24N 31°22' E 121°30'0 0.0
2017-Mar-21 10:30N 31°22' E 121°30'0 0.0
2017-Mar-21 08:33N 31°22' E 121°30'0 0.0
2017-Mar-21 07:18N 31°22' E 121°30'0 0.0
2017-Mar-21 05:18N 31°22' E 121°30'0 0.0
2017-Mar-21 02:21N 31°22' E 121°30'0 0.0
2017-Mar-21 01:18N 31°22' E 121°30'1 1.6
2017-Mar-21 00:33N 31°23' E 121°30'4 4.2
2017-Mar-20 23:33N 31°23' E 121°35'10 9.6
2017-Mar-20 22:33N 31°17' E 121°44'1110.9
2017-Mar-20 21:33N 31°09' E 121°53'1010.4
2017-Mar-20 20:33N 31°05' E 122°03'9 8.9
2017-Mar-20 19:33N 31°03' E 122°14'  
Track history (hours):
 
Tides and Currents Weather Stations Pressure Air Temp Water Temp Dewpoint Dewpoint Depression Visibility Wind Speed Wind Dir Waves Ship Positions

Asian Infinity

Last reported at 2017-Mar-30 06:17 UTC. Time now 2017-Mar-30 22:39 UTC.
Position N 35°09' E 129°19'.

Length 104 m; draft 7.4 m.

Type: Cargo ship. MMSI: 351868000.

Date/timePositionNaut miles runAvg speedWind from/ knotsBaromVisibWave heightAir tempDewpointWater temp
2017-Mar-30 06:17N 35°09' E 129°19'810.1
2017-Mar-30 05:32N 35°03' E 129°13'1010.4
2017-Mar-30 04:33N 34°55' E 129°06'  
2017-Mar-27 23:34N 38°13' E 121°47'1110.2
2017-Mar-27 22:31N 38°18' E 121°35'  
2017-Mar-25 04:32N 38°32' E 121°38'9 8.8
2017-Mar-25 03:34N 38°40' E 121°42'1111.1
2017-Mar-25 02:34N 38°51' E 121°44'10 9.0
2017-Mar-25 01:30N 39°00' E 121°46'1 1.0
2017-Mar-25 00:29N 39°01' E 121°45'0 0.0
2017-Mar-24 23:29N 39°01' E 121°45'0 0.0
2017-Mar-24 22:29N 39°01' E 121°45'0 0.0
2017-Mar-24 21:29N 39°01' E 121°45'0 0.0
2017-Mar-24 20:32N 39°01' E 121°45'0 0.0
2017-Mar-24 19:29N 39°01' E 121°45'0 0.0
2017-Mar-24 18:29N 39°01' E 121°45'0 0.0
2017-Mar-24 17:29N 39°01' E 121°45'0 0.0
2017-Mar-24 16:29N 39°01' E 121°45'0 0.0
2017-Mar-24 15:05N 39°01' E 121°45'0 0.0
2017-Mar-24 14:11N 39°01' E 121°45'0 0.0
2017-Mar-24 13:29N 39°01' E 121°45'0 0.0
2017-Mar-24 11:17N 39°01' E 121°45'0 0.0
2017-Mar-24 07:29N 39°01' E 121°45'0 0.0
2017-Mar-24 06:29N 39°01' E 121°45'0 0.0
2017-Mar-24 05:29N 39°01' E 121°45'0 0.0
2017-Mar-24 04:29N 39°01' E 121°45'4 4.1
2017-Mar-24 03:33N 38°57' E 121°47'7 6.9
2017-Mar-24 02:33N 38°51' E 121°50'8 1.3
2017-Mar-23 20:20N 38°51' E 121°60'9 9.8
2017-Mar-23 19:25N 38°43' E 122°03'461 9.2
2017-Mar-21 17:33N 31°02' E 122°20'7 7.2
2017-Mar-21 16:34N 31°03' E 122°11'10 9.9
2017-Mar-21 15:34N 31°05' E 122°00'1212.2
2017-Mar-21 14:34N 31°13' E 121°49'1212.4
2017-Mar-21 13:33N 31°21' E 121°38'7 7.4
2017-Mar-21 12:33N 31°22' E 121°30'0 0.3
2017-Mar-21 11:24N 31°22' E 121°30'0 0.0
2017-Mar-21 10:30N 31°22' E 121°30'0 0.0
2017-Mar-21 08:33N 31°22' E 121°30'0 0.0
2017-Mar-21 07:18N 31°22' E 121°30'0 0.0
2017-Mar-21 05:18N 31°22' E 121°30'0 0.0
2017-Mar-21 02:21N 31°22' E 121°30'0 0.0
2017-Mar-21 01:18N 31°22' E 121°30'1 1.6
2017-Mar-21 00:33N 31°23' E 121°30'4 4.2
2017-Mar-20 23:33N 31°23' E 121°35'10 9.6
2017-Mar-20 22:33N 31°17' E 121°44'1110.9
2017-Mar-20 21:33N 31°09' E 121°53'1010.4
2017-Mar-20 20:33N 31°05' E 122°03'9 8.9
2017-Mar-20 19:33N 31°03' E 122°14'  

Dump ship's entire track history